Time;durP1;ratioP1;P1;durP2;ratioP2;P2;SDS_P1;SDS_P2;PMS_P1;PMS_P2;Temp;Humidity;BMP_temperature;BMP_pressure;BME280_temperature;BME280_humidity;BME280_pressure;Samples;Min_cycle;Max_cycle;Signal;HPM_P1;HPM_P2
2022/12/24 00:01:32;;;;;;;18.90;17.60;;;18.00;51.60;;;;;;5059065;28;20290;-70
2022/12/24 00:03:59;;;;;;;18.40;17.15;;;18.00;51.60;;;;;;5058395;28;20244;-70
2022/12/24 00:06:26;;;;;;;17.73;16.63;;;18.00;51.60;;;;;;5058383;28;20206;-70
2022/12/24 00:08:53;;;;;;;16.88;15.77;;;18.00;51.70;;;;;;5058540;28;20215;-70
2022/12/24 00:11:20;;;;;;;18.17;16.95;;;18.00;51.70;;;;;;5058542;28;20570;-70
2022/12/24 00:13:49;;;;;;;18.17;16.90;;;17.90;51.50;;;;;;5058328;28;20563;-70
2022/12/24 00:16:16;;;;;;;17.88;16.67;;;17.90;51.70;;;;;;5076127;28;20187;-70
2022/12/24 00:18:43;;;;;;;17.08;15.98;;;17.90;51.70;;;;;;5058525;28;20222;-70
2022/12/24 00:21:10;;;;;;;18.52;17.23;;;17.90;51.60;;;;;;5057881;28;20202;-70
2022/12/24 00:23:37;;;;;;;16.75;15.55;;;17.90;51.70;;;;;;5075966;28;20191;-70
2022/12/24 00:26:05;;;;;;;17.80;16.60;;;17.90;51.70;;;;;;5058719;28;20219;-70
2022/12/24 00:28:32;;;;;;;17.38;16.08;;;17.90;51.70;;;;;;5057884;28;20222;-70
2022/12/24 00:31:06;;;;;;;17.02;15.82;;;17.90;51.70;;;;;;5058133;28;20249;-70
2022/12/24 00:33:33;;;;;;;17.20;16.00;;;17.80;51.70;;;;;;5058890;28;20225;-70
2022/12/24 00:36:00;;;;;;;16.73;15.63;;;17.80;51.70;;;;;;5058075;28;20194;-70
2022/12/24 00:38:28;;;;;;;16.60;15.50;;;17.80;51.70;;;;;;5057818;28;20591;-70
2022/12/24 00:40:59;;;;;;;17.08;15.68;;;17.80;51.70;;;;;;5041695;28;20191;-70
2022/12/24 00:43:27;;;;;;;17.50;16.20;;;17.80;51.70;;;;;;5041123;28;20561;-70
2022/12/24 00:45:54;;;;;;;16.73;15.57;;;17.70;51.90;;;;;;5057730;28;20626;-70
2022/12/24 00:48:22;;;;;;;15.88;14.82;;;17.70;52.00;;;;;;5057708;28;20214;-70
2022/12/24 00:50:49;;;;;;;16.05;14.85;;;17.70;52.00;;;;;;5041131;28;20290;-70
2022/12/24 00:53:17;;;;;;;16.30;15.15;;;17.70;52.10;;;;;;5058171;28;20560;-70
2022/12/24 00:55:44;;;;;;;16.90;15.80;;;17.70;52.20;;;;;;5057631;28;20650;-70
2022/12/24 00:58:11;;;;;;;15.90;14.77;;;17.70;52.30;;;;;;5057597;28;20222;-70
2022/12/24 01:00:38;;;;;;;15.02;14.10;;;17.60;52.10;;;;;;5058050;28;20218;-70
2022/12/24 01:03:05;;;;;;;15.80;14.70;;;17.60;52.10;;;;;;5041088;28;20205;-70
2022/12/24 01:05:34;;;;;;;16.10;15.00;;;17.60;52.20;;;;;;5057524;28;20206;-70
2022/12/24 01:08:01;;;;;;;15.88;14.80;;;17.60;52.10;;;;;;5057908;28;20218;-69
2022/12/24 01:10:28;;;;;;;15.55;14.55;;;17.60;52.10;;;;;;5057884;28;20202;-69
2022/12/24 01:12:55;;;;;;;14.48;13.55;;;17.60;52.20;;;;;;5057998;28;20248;-69
2022/12/24 01:15:22;;;;;;;15.45;14.35;;;17.60;52.10;;;;;;5058575;28;20214;-69
2022/12/24 01:17:49;;;;;;;15.07;14.13;;;17.50;52.10;;;;;;5059093;28;20221;-69
2022/12/24 01:20:16;;;;;;;14.95;13.98;;;17.50;52.10;;;;;;5057999;28;20336;-69
2022/12/24 01:22:45;;;;;;;14.82;13.90;;;17.50;52.20;;;;;;5057592;28;20209;-69
2022/12/24 01:25:12;;;;;;;14.50;13.50;;;17.50;52.20;;;;;;5058183;28;20268;-69
2022/12/24 01:27:39;;;;;;;14.88;13.98;;;17.50;52.20;;;;;;5057637;28;20281;-70
2022/12/24 01:30:09;;;;;;;14.95;13.90;;;17.50;52.20;;;;;;5057276;28;20195;-68
2022/12/24 01:32:36;;;;;;;14.75;13.75;;;17.50;52.30;;;;;;5057112;28;20221;-68
2022/12/24 01:35:04;;;;;;;14.13;13.15;;;17.50;52.30;;;;;;5057469;28;20264;-69
2022/12/24 01:37:32;;;;;;;14.82;13.82;;;17.50;52.40;;;;;;5057329;28;20214;-69
2022/12/24 01:45:45;;;;;;;15.25;14.25;;;17.40;52.50;;;;;;5056971;28;20227;-69
2022/12/24 01:48:24;;;;;;;14.27;13.38;;;17.50;52.30;;;;;;5057075;28;20219;-69
2022/12/24 01:50:53;;;;;;;14.10;13.25;;;17.40;52.20;;;;;;5056838;28;20190;-69
2022/12/24 01:53:20;;;;;;;14.13;13.07;;;17.40;52.20;;;;;;5056741;28;20191;-69
2022/12/24 01:55:49;;;;;;;14.52;13.38;;;17.40;52.20;;;;;;5056222;28;20199;-69
2022/12/24 01:58:16;;;;;;;15.00;13.93;;;17.40;52.20;;;;;;5056966;28;20218;-70
2022/12/24 02:00:43;;;;;;;13.07;12.27;;;17.40;52.20;;;;;;5056837;28;20202;-70
2022/12/24 02:03:10;;;;;;;13.52;12.43;;;17.40;52.20;;;;;;5056840;28;20248;-70
2022/12/24 02:05:42;;;;;;;13.88;12.90;;;17.40;52.30;;;;;;5056975;28;20309;-70
2022/12/24 02:08:10;;;;;;;14.30;13.23;;;17.40;52.30;;;;;;5057166;28;20253;-70
2022/12/24 02:10:36;;;;;;;13.88;13.00;;;17.40;52.30;;;;;;5056965;28;20225;-70
2022/12/24 02:13:05;;;;;;;13.43;12.40;;;17.40;52.30;;;;;;5057472;28;20230;-70
2022/12/24 02:15:36;;;;;;;12.75;11.93;;;17.40;52.30;;;;;;5057733;28;20190;-70
2022/12/24 02:18:07;;;;;;;13.75;12.82;;;17.40;52.40;;;;;;5057292;28;20227;-70
2022/12/24 02:21:20;;;;;;;13.07;12.30;;;17.40;52.50;;;;;;5057469;28;20610;-70
2022/12/24 02:23:57;;;;;;;12.82;12.02;;;17.40;52.50;;;;;;5058448;28;20202;-70
2022/12/24 02:26:31;;;;;;;13.30;12.35;;;17.40;52.50;;;;;;5058253;28;20214;-70
2022/12/24 02:29:14;;;;;;;12.82;12.02;;;17.40;52.50;;;;;;5057275;28;20210;-70
2022/12/24 02:31:43;;;;;;;13.27;12.38;;;17.40;52.50;;;;;;5057261;28;20186;-70
2022/12/24 02:34:13;;;;;;;13.02;12.00;;;17.40;52.50;;;;;;5056952;28;20658;-70
2022/12/24 02:36:42;;;;;;;12.98;12.07;;;17.40;52.50;;;;;;5056439;28;20199;-70
2022/12/24 02:39:10;;;;;;;13.38;12.48;;;17.30;52.40;;;;;;5056816;28;20217;-70
2022/12/24 02:44:20;;;;;;;12.73;11.90;;;17.30;52.40;;;;;;5055857;28;20715;-70
2022/12/24 02:46:48;;;;;;;13.10;12.02;;;17.30;52.40;;;;;;5056432;28;20231;-70
2022/12/24 02:49:15;;;;;;;12.80;11.90;;;17.30;52.40;;;;;;5056167;28;20272;-70
2022/12/24 02:51:42;;;;;;;12.38;11.57;;;17.30;52.30;;;;;;5056258;28;20252;-68
2022/12/24 02:54:09;;;;;;;12.02;11.20;;;17.30;52.40;;;;;;5056590;28;20194;-68
2022/12/24 02:56:43;;;;;;;12.15;11.43;;;17.30;52.40;;;;;;5056019;28;20199;-68
2022/12/24 02:59:36;;;;;;;12.65;11.85;;;17.30;52.50;;;;;;5074048;28;20288;-69
2022/12/24 03:02:09;;;;;;;12.35;11.52;;;17.30;52.50;;;;;;5051616;28;20203;-69
2022/12/24 03:04:41;;;;;;;11.50;10.70;;;17.30;52.40;;;;;;5057069;28;20234;-69
2022/12/24 03:07:15;;;;;;;12.60;11.68;;;17.30;52.50;;;;;;5059013;28;20238;-69
2022/12/24 03:09:51;;;;;;;11.82;11.13;;;17.30;52.50;;;;;;5060195;28;20298;-69
2022/12/24 03:12:21;;;;;;;12.35;11.55;;;17.20;52.30;;;;;;5060584;28;20232;-69
2022/12/24 03:14:48;;;;;;;11.05;10.32;;;17.20;52.30;;;;;;5060898;28;20198;-69
2022/12/24 03:17:17;;;;;;;11.70;10.90;;;17.20;52.30;;;;;;5060778;28;20198;-69
2022/12/24 03:19:44;;;;;;;11.85;10.98;;;17.20;52.30;;;;;;5062371;28;20203;-69
2022/12/24 03:22:11;;;;;;;11.82;11.10;;;17.30;52.40;;;;;;5061393;28;20285;-69
2022/12/24 03:24:38;;;;;;;10.80;10.10;;;17.30;52.40;;;;;;5059881;28;20281;-69
2022/12/24 03:27:06;;;;;;;11.30;10.50;;;17.20;52.30;;;;;;5060053;28;20582;-69
2022/12/24 03:29:33;;;;;;;11.15;10.35;;;17.20;52.30;;;;;;5060123;28;20302;-69
2022/12/24 03:32:01;;;;;;;11.13;10.43;;;17.20;52.40;;;;;;5062213;28;20565;-69
2022/12/24 03:34:29;;;;;;;11.50;10.80;;;17.20;52.30;;;;;;5063002;28;20201;-69
2022/12/24 03:36:56;;;;;;;10.98;10.27;;;17.20;52.30;;;;;;5059678;28;20198;-69
2022/12/24 03:39:23;;;;;;;10.90;10.18;;;17.20;52.40;;;;;;5059246;28;20586;-69
2022/12/24 03:41:50;;;;;;;12.27;11.23;;;17.20;52.40;;;;;;5061588;28;20205;-68
2022/12/24 03:44:17;;;;;;;10.73;10.05;;;17.10;52.30;;;;;;5059621;28;20191;-68
2022/12/24 03:46:45;;;;;;;10.73;10.02;;;17.10;52.30;;;;;;5059498;28;20221;-68
2022/12/24 03:49:12;;;;;;;10.60;9.60;;;17.20;52.40;;;;;;5077800;28;20268;-68
2022/12/24 03:51:40;;;;;;;11.35;10.55;;;17.10;52.30;;;;;;5059653;28;20205;-68
2022/12/24 03:54:08;;;;;;;10.40;9.68;;;17.10;52.30;;;;;;5059459;28;20200;-68
2022/12/24 03:56:35;;;;;;;11.05;10.30;;;17.10;52.30;;;;;;5060738;28;20224;-68
2022/12/24 03:59:02;;;;;;;10.48;9.70;;;17.10;52.30;;;;;;5043043;28;20226;-68
2022/12/24 04:01:29;;;;;;;10.25;9.48;;;17.10;52.30;;;;;;5059388;28;20248;-68
2022/12/24 04:03:56;;;;;;;10.70;10.00;;;17.10;52.30;;;;;;5059069;28;20197;-68
2022/12/24 04:06:23;;;;;;;10.45;9.75;;;17.10;52.30;;;;;;5058774;28;20721;-68
2022/12/24 04:08:51;;;;;;;9.98;9.30;;;17.10;52.30;;;;;;5058617;28;20345;-68
2022/12/24 04:11:19;;;;;;;9.88;9.10;;;17.10;52.30;;;;;;5076453;28;20191;-69
2022/12/24 04:13:46;;;;;;;9.73;9.02;;;17.10;52.30;;;;;;5042106;28;20249;-69
2022/12/24 04:16:14;;;;;;;8.38;7.88;;;17.10;52.50;;;;;;5058335;28;20190;-69
2022/12/24 04:18:41;;;;;;;9.13;8.52;;;17.10;52.70;;;;;;5057496;28;20314;-69
2022/12/24 04:21:08;;;;;;;7.95;7.43;;;17.10;52.60;;;;;;5058518;28;20600;-69
2022/12/24 04:23:36;;;;;;;9.30;8.60;;;17.10;52.50;;;;;;5058200;28;20199;-69
2022/12/24 04:26:05;;;;;;;9.10;8.50;;;17.10;52.60;;;;;;5059128;28;20222;-69
2022/12/24 04:28:32;;;;;;;8.25;7.75;;;17.10;52.30;;;;;;5041634;28;20219;-69
2022/12/24 04:30:59;;;;;;;8.20;7.70;;;17.20;52.40;;;;;;5075994;28;20191;-69
2022/12/24 04:33:27;;;;;;;8.30;7.80;;;17.20;52.40;;;;;;5057582;28;20205;-69
2022/12/24 04:35:53;;;;;;;8.30;7.60;;;17.20;52.30;;;;;;5057828;28;20260;-69
2022/12/24 04:38:21;;;;;;;9.13;8.43;;;17.20;52.10;;;;;;5075645;28;20214;-69
2022/12/24 04:40:48;;;;;;;9.15;8.52;;;17.30;52.10;;;;;;5075754;28;20198;-69
2022/12/24 04:43:16;;;;;;;8.88;8.27;;;17.30;52.00;;;;;;5057637;28;20294;-69
2022/12/24 04:45:44;;;;;;;8.75;8.15;;;17.30;51.90;;;;;;5057554;28;20245;-69
2022/12/24 04:48:11;;;;;;;8.57;8.07;;;17.40;51.90;;;;;;5075545;28;20210;-69
2022/12/24 04:50:38;;;;;;;7.75;7.22;;;17.40;51.80;;;;;;5041275;28;20198;-69
2022/12/24 04:53:05;;;;;;;7.70;7.10;;;17.40;51.80;;;;;;5057457;28;20203;-69
2022/12/24 04:55:32;;;;;;;8.40;7.90;;;17.40;51.70;;;;;;5057455;28;20205;-69
2022/12/24 04:58:00;;;;;;;8.55;7.85;;;17.40;51.70;;;;;;5057315;28;20784;-69
2022/12/24 05:00:28;;;;;;;8.63;7.90;;;17.40;51.60;;;;;;5057292;28;20202;-69
2022/12/24 05:02:55;;;;;;;7.80;7.30;;;17.40;51.70;;;;;;5057113;28;20202;-69
2022/12/24 05:05:23;;;;;;;8.25;7.65;;;17.40;51.60;;;;;;5056998;28;20210;-69
2022/12/24 05:07:50;;;;;;;8.60;8.00;;;17.40;51.70;;;;;;5057094;28;20219;-69
2022/12/24 05:10:17;;;;;;;8.10;7.60;;;17.40;51.60;;;;;;5057500;28;20195;-69
2022/12/24 05:12:44;;;;;;;9.02;8.43;;;17.40;51.60;;;;;;5057073;28;20225;-69
2022/12/24 05:15:11;;;;;;;7.90;7.38;;;17.40;51.60;;;;;;5056816;28;20199;-69
2022/12/24 05:17:40;;;;;;;8.20;7.60;;;17.40;51.60;;;;;;5057275;28;20686;-69
2022/12/24 05:20:08;;;;;;;8.32;7.53;;;17.40;51.50;;;;;;5056847;28;20675;-69
2022/12/24 05:28:04;;;;;;;7.38;6.90;;;17.40;51.50;;;;;;5056587;28;20317;-68
2022/12/24 05:30:31;;;;;;;8.02;7.53;;;17.40;51.50;;;;;;5056845;28;20595;-68
2022/12/24 05:32:59;;;;;;;7.38;6.88;;;17.40;51.40;;;;;;5056623;28;20616;-68
2022/12/24 05:35:27;;;;;;;7.57;7.07;;;17.40;51.50;;;;;;5056452;28;20250;-68
2022/12/24 05:37:57;;;;;;;8.30;7.70;;;17.40;51.60;;;;;;5074267;28;20682;-68
2022/12/24 05:40:24;;;;;;;7.70;7.20;;;17.40;51.70;;;;;;5056474;28;20191;-70
2022/12/24 05:42:51;;;;;;;7.55;7.05;;;17.40;51.70;;;;;;5056530;28;20662;-69
2022/12/24 05:45:18;;;;;;;7.43;6.93;;;17.40;51.80;;;;;;5056548;28;20202;-69
2022/12/24 05:47:46;;;;;;;7.53;6.93;;;17.40;51.60;;;;;;5057218;28;20226;-69
2022/12/24 05:50:14;;;;;;;7.28;6.68;;;17.40;51.90;;;;;;5056764;28;20248;-68
2022/12/24 05:52:41;;;;;;;7.00;6.50;;;17.40;51.90;;;;;;5056357;28;20195;-68
2022/12/24 05:55:09;;;;;;;7.38;6.88;;;17.40;52.10;;;;;;5057581;28;20198;-68
2022/12/24 05:57:36;;;;;;;7.00;6.50;;;17.50;52.20;;;;;;5056542;28;20225;-69
2022/12/24 06:00:03;;;;;;;7.35;6.85;;;17.40;52.40;;;;;;5056936;28;20194;-69
2022/12/24 06:02:39;;;;;;;7.10;6.60;;;17.50;52.60;;;;;;5074260;28;20206;-68
2022/12/24 06:05:06;;;;;;;6.70;6.13;;;17.50;52.60;;;;;;5074468;28;20194;-68
2022/12/24 06:07:34;;;;;;;6.85;6.38;;;17.50;52.60;;;;;;5056080;28;20328;-69
2022/12/24 06:10:01;;;;;;;6.68;6.18;;;17.50;52.60;;;;;;5056823;28;20194;-69
2022/12/24 06:12:28;;;;;;;6.68;6.20;;;17.50;52.70;;;;;;5056312;28;20253;-69
2022/12/24 06:14:55;;;;;;;6.78;6.38;;;17.50;52.50;;;;;;5055745;28;20203;-69
2022/12/24 06:17:22;;;;;;;7.00;6.50;;;17.50;52.50;;;;;;5055790;28;20195;-69
2022/12/24 06:19:49;;;;;;;6.20;5.80;;;17.50;52.60;;;;;;5056094;28;20199;-69
2022/12/24 06:22:16;;;;;;;7.15;6.55;;;17.50;52.70;;;;;;5055647;28;20614;-69
2022/12/24 06:24:44;;;;;;;7.20;6.70;;;17.50;52.30;;;;;;5055563;28;20203;-69
2022/12/24 06:27:11;;;;;;;7.45;6.95;;;17.50;51.70;;;;;;5055614;28;20218;-69
2022/12/24 06:29:38;;;;;;;6.43;6.03;;;17.50;51.60;;;;;;5055689;28;20199;-69
2022/12/24 06:32:05;;;;;;;7.32;6.72;;;17.50;51.50;;;;;;5056106;28;20199;-69
2022/12/24 06:34:32;;;;;;;7.22;6.60;;;17.50;51.50;;;;;;5055564;28;20676;-69
2022/12/24 06:36:59;;;;;;;6.53;5.97;;;17.50;51.50;;;;;;5057268;28;20202;-69
2022/12/24 06:39:26;;;;;;;6.72;6.32;;;17.50;51.40;;;;;;5056172;28;20245;-69
2022/12/24 06:41:54;;;;;;;6.55;6.13;;;17.50;51.30;;;;;;5055681;28;20209;-69
2022/12/24 06:44:22;;;;;;;6.57;6.18;;;17.50;51.30;;;;;;5055774;28;20198;-68
2022/12/24 06:46:48;;;;;;;6.78;6.35;;;17.50;51.20;;;;;;5055952;28;20275;-69
2022/12/24 06:49:16;;;;;;;6.32;5.95;;;17.50;51.20;;;;;;5056143;28;20680;-69
2022/12/24 06:51:43;;;;;;;6.70;6.20;;;17.40;51.10;;;;;;5057028;28;20653;-69
2022/12/24 06:54:10;;;;;;;6.07;5.57;;;17.40;51.10;;;;;;5073989;28;20225;-69
2022/12/24 06:56:37;;;;;;;6.10;5.70;;;17.50;51.00;;;;;;5056021;28;20695;-69
2022/12/24 06:59:07;;;;;;;6.32;5.82;;;17.50;50.90;;;;;;5055663;28;20578;-67
2022/12/24 07:01:34;;;;;;;5.90;5.50;;;17.50;50.80;;;;;;5039632;28;20248;-68
2022/12/24 07:04:01;;;;;;;6.07;5.50;;;17.60;50.70;;;;;;5055614;28;20206;-68
2022/12/24 07:06:29;;;;;;;6.00;5.60;;;17.60;50.70;;;;;;5055499;28;20215;-68
2022/12/24 07:08:56;;;;;;;6.05;5.55;;;17.60;50.50;;;;;;5055943;28;20222;-68
2022/12/24 07:11:24;;;;;;;6.53;5.95;;;17.60;50.60;;;;;;5055731;28;20305;-68
2022/12/24 07:13:51;;;;;;;6.07;5.50;;;17.70;50.60;;;;;;5055800;28;20252;-69
2022/12/24 07:16:20;;;;;;;5.78;5.32;;;17.70;50.40;;;;;;5073930;28;20179;-69
2022/12/24 07:18:47;;;;;;;5.82;5.43;;;17.70;50.40;;;;;;5055477;28;20228;-69
2022/12/24 07:21:14;;;;;;;5.75;5.35;;;17.80;50.30;;;;;;5055520;28;20268;-69
2022/12/24 07:23:41;;;;;;;5.88;5.38;;;17.80;50.20;;;;;;5055629;28;20191;-69
2022/12/24 07:26:08;;;;;;;5.10;4.75;;;17.80;50.20;;;;;;5073141;28;20554;-69
2022/12/24 07:28:35;;;;;;;5.55;5.15;;;17.80;50.20;;;;;;5055513;28;20251;-69
2022/12/24 07:31:03;;;;;;;5.47;4.80;;;17.80;50.00;;;;;;5055505;28;20195;-69
2022/12/24 07:33:31;;;;;;;5.47;5.07;;;17.90;50.10;;;;;;5055624;28;20206;-69
2022/12/24 07:36:00;;;;;;;5.53;5.22;;;17.90;50.00;;;;;;5055182;28;20195;-69
2022/12/24 07:38:26;;;;;;;5.35;4.95;;;17.90;50.00;;;;;;5056011;28;20217;-67
2022/12/24 07:40:54;;;;;;;5.32;4.93;;;17.90;50.00;;;;;;5073463;28;20187;-68
2022/12/24 07:43:21;;;;;;;5.32;4.93;;;17.90;50.00;;;;;;5072997;28;20205;-68
2022/12/24 07:45:48;;;;;;;5.45;5.03;;;17.90;49.90;;;;;;5091089;22;20233;-70
2022/12/24 07:48:16;;;;;;;5.63;5.13;;;17.90;49.90;;;;;;5094815;28;20234;-70
2022/12/24 07:50:44;;;;;;;4.75;4.45;;;17.90;49.80;;;;;;5096273;28;20202;-71
2022/12/24 07:53:11;;;;;;;5.53;5.13;;;18.00;49.80;;;;;;5094823;28;20194;-71
2022/12/24 07:55:39;;;;;;;5.47;5.00;;;18.00;49.90;;;;;;5097582;28;20198;-71
2022/12/24 07:58:06;;;;;;;5.00;4.60;;;17.90;49.80;;;;;;5099541;28;20221;-71
2022/12/24 08:00:33;;;;;;;5.53;5.13;;;17.90;50.00;;;;;;5080312;28;20652;-71
2022/12/24 08:03:00;;;;;;;4.63;4.22;;;17.90;50.00;;;;;;5096378;28;20213;-71
2022/12/24 08:05:27;;;;;;;4.93;4.63;;;17.90;50.00;;;;;;5096503;28;20269;-71
2022/12/24 08:07:55;;;;;;;5.13;4.57;;;18.00;49.90;;;;;;5096116;28;20263;-71
2022/12/24 08:10:23;;;;;;;4.22;3.90;;;18.00;49.90;;;;;;5097814;28;20190;-71
2022/12/24 08:12:50;;;;;;;4.93;4.53;;;18.00;49.80;;;;;;5096437;28;20655;-71
2022/12/24 08:15:17;;;;;;;4.50;4.20;;;18.00;49.70;;;;;;5080291;28;20189;-71
2022/12/24 08:17:44;;;;;;;4.78;4.38;;;18.00;50.20;;;;;;5098348;28;20663;-71
2022/12/24 08:20:12;;;;;;;4.88;4.05;;;18.10;49.60;;;;;;5096321;28;20560;-71
2022/12/24 08:22:39;;;;;;;4.70;4.40;;;18.10;49.60;;;;;;5096461;28;20277;-71
2022/12/24 08:25:09;;;;;;;4.78;4.40;;;18.10;49.70;;;;;;5095938;28;20204;-71
2022/12/24 08:27:36;;;;;;;5.05;4.65;;;18.10;49.60;;;;;;5096072;28;20222;-71
2022/12/24 08:30:03;;;;;;;4.72;4.43;;;18.10;49.60;;;;;;5101814;28;20654;-71
2022/12/24 08:32:30;;;;;;;4.68;4.28;;;18.10;49.60;;;;;;5098421;28;20288;-69
2022/12/24 08:34:58;;;;;;;4.63;4.32;;;18.20;49.60;;;;;;5096931;28;20186;-69
2022/12/24 08:37:25;;;;;;;4.35;4.05;;;18.20;49.60;;;;;;5078696;28;20198;-68
2022/12/24 08:39:53;;;;;;;4.28;3.92;;;18.20;49.50;;;;;;5095791;28;20194;-68
2022/12/24 08:42:22;;;;;;;4.53;4.13;;;18.20;49.60;;;;;;5095579;28;20194;-68
2022/12/24 08:44:49;;;;;;;3.92;3.70;;;18.20;49.50;;;;;;5095048;28;20270;-68
2022/12/24 08:47:16;;;;;;;4.05;3.83;;;18.20;49.50;;;;;;5096288;28;20667;-69
2022/12/24 08:49:43;;;;;;;3.97;3.67;;;18.20;49.40;;;;;;5095231;28;20198;-68
2022/12/24 08:52:11;;;;;;;4.57;4.28;;;18.20;49.40;;;;;;5095155;28;20660;-68
2022/12/24 08:54:37;;;;;;;4.88;4.47;;;18.20;49.50;;;;;;5095039;28;20197;-68
2022/12/24 08:57:05;;;;;;;4.88;4.47;;;18.20;49.50;;;;;;5095136;28;20198;-68
2022/12/24 08:59:33;;;;;;;4.63;4.15;;;18.20;49.50;;;;;;5095953;28;20225;-68
2022/12/24 09:02:00;;;;;;;5.88;5.38;;;18.20;49.50;;;;;;5095096;28;20660;-68
2022/12/24 09:04:27;;;;;;;5.55;5.05;;;18.30;49.40;;;;;;5094327;28;20221;-68
2022/12/24 09:06:54;;;;;;;5.00;4.60;;;18.20;49.40;;;;;;5094704;28;20197;-68
2022/12/24 09:09:21;;;;;;;5.13;4.72;;;18.20;49.60;;;;;;5094867;28;20296;-70
2022/12/24 09:11:49;;;;;;;4.75;4.35;;;18.20;49.60;;;;;;5094941;28;20638;-71
2022/12/24 09:14:16;;;;;;;4.20;3.90;;;18.20;49.60;;;;;;5095317;28;20232;-70
2022/12/24 09:16:44;;;;;;;4.32;4.03;;;18.20;49.50;;;;;;5096503;28;20671;-70
2022/12/24 09:19:12;;;;;;;4.20;4.00;;;18.20;49.40;;;;;;5095267;28;20210;-71
2022/12/24 09:21:39;;;;;;;4.43;4.00;;;18.30;49.50;;;;;;5094936;28;20285;-71
2022/12/24 09:24:07;;;;;;;4.20;3.90;;;18.30;49.40;;;;;;5094806;28;20375;-70
2022/12/24 09:26:35;;;;;;;4.30;4.00;;;18.30;49.40;;;;;;5094593;28;20201;-70
2022/12/24 09:29:02;;;;;;;4.40;4.00;;;18.30;49.20;;;;;;5095164;28;20221;-70
2022/12/24 09:31:30;;;;;;;4.32;3.92;;;18.40;49.20;;;;;;5095458;28;20190;-69
2022/12/24 09:33:59;;;;;;;4.05;3.72;;;18.40;49.10;;;;;;5093768;28;20225;-69
2022/12/24 09:36:27;;;;;;;4.10;3.70;;;18.40;49.00;;;;;;5093556;28;20198;-69
2022/12/24 09:38:54;;;;;;;4.20;3.90;;;18.50;49.00;;;;;;5093632;28;20225;-69
2022/12/24 09:41:30;;;;;;;4.47;4.07;;;18.50;49.00;;;;;;5093726;28;20202;-69
2022/12/24 09:43:59;;;;;;;4.13;3.72;;;18.50;49.10;;;;;;5094805;28;20546;-70
2022/12/24 09:46:28;;;;;;;5.13;4.05;;;18.60;49.10;;;;;;5093533;28;20263;-70
2022/12/24 09:48:57;;;;;;;3.50;3.15;;;18.60;49.10;;;;;;5093428;28;20275;-70
2022/12/24 09:51:30;;;;;;;3.97;3.63;;;18.60;49.10;;;;;;5094351;28;20213;-70
2022/12/24 09:53:59;;;;;;;3.95;3.65;;;18.60;49.00;;;;;;5093445;28;20208;-70
2022/12/24 09:56:34;;;;;;;3.90;3.58;;;18.60;48.90;;;;;;5093666;28;20202;-70
2022/12/24 09:59:02;;;;;;;3.80;3.50;;;18.60;48.80;;;;;;5093407;28;20584;-70
2022/12/24 10:01:30;;;;;;;4.68;4.13;;;18.60;48.90;;;;;;5093368;28;20202;-70
2022/12/24 10:03:57;;;;;;;6.15;5.07;;;18.70;48.90;;;;;;5092998;28;20205;-70
2022/12/24 10:06:27;;;;;;;7.30;6.57;;;18.60;48.80;;;;;;5093044;28;20206;-70
2022/12/24 10:09:02;;;;;;;6.93;6.32;;;18.60;48.80;;;;;;5093042;28;20737;-70
2022/12/24 10:11:31;;;;;;;8.50;7.25;;;18.60;48.90;;;;;;5093326;28;20185;-70
2022/12/24 10:14:10;;;;;;;8.60;7.32;;;18.60;48.80;;;;;;5093583;28;20190;-70
2022/12/24 10:16:42;;;;;;;9.15;8.23;;;18.60;48.90;;;;;;5093008;28;20200;-70
2022/12/24 10:19:13;;;;;;;11.05;9.55;;;18.60;49.00;;;;;;5093113;28;20634;-70
2022/12/24 10:21:47;;;;;;;10.25;8.25;;;18.60;49.00;;;;;;5092612;28;20288;-70
2022/12/24 10:24:18;;;;;;;10.23;9.23;;;18.60;49.00;;;;;;5092768;28;20190;-70
2022/12/24 10:26:46;;;;;;;8.52;7.72;;;18.60;49.00;;;;;;5092873;28;20194;-70
2022/12/24 10:29:15;;;;;;;7.47;6.78;;;18.70;49.00;;;;;;5092739;28;20771;-70
2022/12/24 10:31:48;;;;;;;5.40;4.85;;;18.60;49.00;;;;;;5094486;28;20204;-70
2022/12/24 10:34:18;;;;;;;5.10;4.60;;;18.60;49.00;;;;;;5093086;28;20268;-70
2022/12/24 10:36:47;;;;;;;4.32;3.95;;;18.70;49.00;;;;;;5093684;28;20281;-70
2022/12/24 10:39:17;;;;;;;4.65;3.92;;;18.70;49.00;;;;;;5094259;28;20271;-70
2022/12/24 10:41:45;;;;;;;4.03;3.70;;;18.70;49.00;;;;;;5103098;28;20158;-70
2022/12/24 10:44:13;;;;;;;5.80;3.80;;;18.70;49.00;;;;;;5117517;28;20192;-70
2022/12/24 10:46:40;;;;;;;4.10;3.70;;;18.70;49.60;;;;;;5105886;28;20194;-70
2022/12/24 10:49:08;;;;;;;3.70;3.40;;;18.70;49.00;;;;;;5098867;28;20278;-70
2022/12/24 10:51:39;;;;;;;3.92;3.60;;;18.80;49.00;;;;;;5092858;28;20652;-70
2022/12/24 10:54:11;;;;;;;3.80;3.50;;;18.80;49.00;;;;;;5092632;28;20200;-70
2022/12/24 10:56:40;;;;;;;3.92;3.53;;;18.80;49.10;;;;;;5092803;28;20225;-70
2022/12/24 10:59:22;;;;;;;4.85;3.67;;;18.80;49.00;;;;;;5092405;28;20213;-70
2022/12/24 11:01:49;;;;;;;4.20;3.78;;;18.80;49.00;;;;;;5092390;28;20190;-70
2022/12/24 11:04:17;;;;;;;4.18;3.88;;;18.80;49.10;;;;;;5092412;28;20220;-70
2022/12/24 11:06:52;;;;;;;3.65;3.35;;;18.80;49.00;;;;;;5092755;28;20201;-70
2022/12/24 11:09:23;;;;;;;4.03;3.63;;;18.80;48.90;;;;;;5092234;28;20245;-70
2022/12/24 11:11:49;;;;;;;4.28;3.45;;;18.80;48.90;;;;;;5092464;28;20665;-70
2022/12/24 11:14:17;;;;;;;5.05;3.70;;;18.80;49.00;;;;;;5092476;28;20293;-70
2022/12/24 11:16:49;;;;;;;4.00;3.70;;;18.80;49.00;;;;;;5092916;28;20194;-70
2022/12/24 11:19:18;;;;;;;4.22;3.60;;;18.80;49.10;;;;;;5093647;28;20290;-70
2022/12/24 11:21:45;;;;;;;4.50;3.40;;;18.80;49.20;;;;;;5092311;28;20660;-70
2022/12/24 11:24:24;;;;;;;3.70;3.30;;;18.80;49.20;;;;;;5092378;28;20637;-70
2022/12/24 11:26:50;;;;;;;4.75;3.63;;;18.80;49.10;;;;;;5092753;28;20643;-70
2022/12/24 11:29:20;;;;;;;5.22;3.67;;;18.80;49.20;;;;;;5096473;28;20233;-70
2022/12/24 11:31:47;;;;;;;3.10;2.80;;;18.80;49.20;;;;;;5097598;28;20195;-70
2022/12/24 11:34:19;;;;;;;3.67;3.33;;;18.80;49.30;;;;;;5097750;28;20208;-70
2022/12/24 11:36:46;;;;;;;4.28;3.00;;;18.80;49.30;;;;;;5098242;28;20194;-70
2022/12/24 11:39:18;;;;;;;3.30;3.00;;;18.80;49.20;;;;;;5097691;28;20214;-70
2022/12/24 11:41:47;;;;;;;4.22;3.40;;;18.80;49.30;;;;;;5097470;28;20225;-70
2022/12/24 11:44:14;;;;;;;4.93;3.70;;;18.80;49.30;;;;;;5098984;28;20182;-70
2022/12/24 11:46:42;;;;;;;5.47;3.33;;;18.80;49.30;;;;;;5099205;28;20205;-70
2022/12/24 11:49:17;;;;;;;3.90;3.30;;;18.80;49.20;;;;;;5098260;28;20308;-70
2022/12/24 11:52:13;;;;;;;3.60;3.30;;;18.80;49.30;;;;;;5099296;28;20246;-70
2022/12/24 11:54:43;;;;;;;3.90;3.25;;;18.80;49.20;;;;;;5100120;28;20184;-70
2022/12/24 11:57:12;;;;;;;4.35;3.20;;;18.90;49.10;;;;;;5098613;28;20277;-70
2022/12/24 11:59:40;;;;;;;3.40;3.10;;;18.90;49.00;;;;;;5081143;28;20201;-70
2022/12/24 12:02:13;;;;;;;3.75;3.22;;;19.00;49.00;;;;;;5097850;28;20228;-70
2022/12/24 12:04:40;;;;;;;3.60;3.20;;;19.00;49.00;;;;;;5097178;28;20213;-70
2022/12/24 12:07:11;;;;;;;3.63;3.10;;;19.00;48.90;;;;;;5098468;28;20190;-70
2022/12/24 12:09:39;;;;;;;4.18;3.33;;;19.00;48.80;;;;;;5097237;28;20214;-70
2022/12/24 12:12:07;;;;;;;5.63;3.47;;;19.00;48.80;;;;;;5096892;28;20656;-71
2022/12/24 12:14:37;;;;;;;4.45;3.20;;;19.10;48.80;;;;;;5096646;28;20288;-70
2022/12/24 12:17:12;;;;;;;3.47;3.08;;;19.10;48.80;;;;;;5096637;28;20289;-70
2022/12/24 12:19:42;;;;;;;4.03;2.95;;;19.10;48.80;;;;;;5097435;28;20194;-70
2022/12/24 12:22:16;;;;;;;3.83;3.42;;;19.10;48.80;;;;;;5096704;28;20636;-70
2022/12/24 12:24:44;;;;;;;3.83;3.50;;;19.10;48.60;;;;;;5080277;28;20540;-70
2022/12/24 12:27:17;;;;;;;3.30;2.80;;;19.10;48.30;;;;;;5082179;28;20270;-70
2022/12/24 12:29:47;;;;;;;4.53;3.20;;;19.10;48.40;;;;;;5076803;28;20218;-70
2022/12/24 12:32:21;;;;;;;5.97;3.45;;;19.10;48.60;;;;;;5087696;28;20556;-70
2022/12/24 12:34:53;;;;;;;6.03;3.30;;;19.10;48.80;;;;;;5095047;28;20255;-70
2022/12/24 12:37:21;;;;;;;6.30;3.00;;;19.10;49.00;;;;;;5088610;28;20202;-70
2022/12/24 12:39:48;;;;;;;4.30;2.95;;;19.10;49.20;;;;;;5089900;28;20228;-70
2022/12/24 12:42:18;;;;;;;4.13;2.90;;;19.10;49.20;;;;;;5080552;28;20226;-70
2022/12/24 12:45:02;;;;;;;5.03;3.17;;;19.10;49.20;;;;;;5075732;28;20206;-70
2022/12/24 12:47:43;;;;;;;5.35;3.50;;;19.10;49.50;;;;;;5092583;28;20233;-69
2022/12/24 12:50:14;;;;;;;5.70;3.30;;;19.10;49.70;;;;;;5095714;28;20605;-70
2022/12/24 12:52:50;;;;;;;4.30;2.80;;;19.10;50.10;;;;;;5087986;28;20194;-70
2022/12/24 12:55:23;;;;;;;3.92;3.20;;;19.10;50.10;;;;;;5094763;28;20645;-70
2022/12/24 12:57:50;;;;;;;6.20;3.67;;;19.10;49.90;;;;;;5088767;28;20279;-70
2022/12/24 13:00:19;;;;;;;5.55;3.80;;;19.10;50.30;;;;;;5095519;28;20206;-70
2022/12/24 13:03:19;;;;;;;5.07;3.60;;;19.10;50.30;;;;;;5097209;28;20197;-71